Time;durP1;ratioP1;P1;durP2;ratioP2;P2;SDS_P1;SDS_P2;PMS_P1;PMS_P2;Temp;Humidity;BMP_temperature;BMP_pressure;BME280_temperature;BME280_humidity;BME280_pressure;Samples;Min_cycle;Max_cycle;Signal;HPM_P1;HPM_P2
2023/03/02 05:28:20;;;;;;;;;;;;;;;3.24;64.32;101792.16;1955114;72;20138;-45
2023/03/02 05:30:48;;;;;;;;;;;;;;;3.84;63.98;101803.88;1955212;73;20355;-46
2023/03/02 05:33:16;;;;;;;;;;;;;;;4.38;63.67;101797.59;1955308;73;20120;-44
2023/03/02 05:35:44;;;;;;;;;;;;;;;4.81;63.12;101793.81;1955164;73;20116;-44
2023/03/02 05:38:12;;;;;;;;;;;;;;;5.03;61.49;101799.05;1955154;73;20104;-45
2023/03/02 05:40:41;;;;;;;;;;;;;;;5.37;60.55;101801.23;1955188;73;20193;-45
2023/03/02 05:43:10;;;;;;;;;;;;;;;5.84;61.27;101803.78;1955136;73;20112;-45
2023/03/02 05:45:38;;;;;;;;;;;;;;;6.42;61.89;101808.85;1955300;73;20343;-46
2023/03/02 05:48:06;;;;;;;;;;;;;;;7.03;61.27;101801.52;1955323;73;20358;-46
2023/03/02 05:50:34;;;;;;;;;;;;;;;7.43;59.96;101814.27;1955193;73;20120;-47
2023/03/02 05:53:02;;;;;;;;;;;;;;;7.65;58.38;101820.19;1955229;73;20146;-44
2023/03/02 05:55:30;;;;;;;;;;;;;;;8.06;58.91;101828.05;1955135;73;20163;-44
2023/03/02 05:57:57;;;;;;;;;;;;;;;8.65;57.96;101836.11;1955103;73;20143;-44
2023/03/02 06:00:25;;;;;;;;;;;;;;;9.19;58.72;101833.59;1955298;73;20112;-45
2023/03/02 06:02:53;;;;;;;;;;;;;;;9.52;58.00;101840.50;1955158;73;20120;-44
2023/03/02 06:05:21;;;;;;;;;;;;;;;9.85;58.13;101846.92;1955192;73;20117;-45
2023/03/02 06:07:49;;;;;;;;;;;;;;;10.53;58.23;101851.33;1955177;73;20147;-44
2023/03/02 06:10:16;;;;;;;;;;;;;;;11.03;57.73;101841.89;1955109;73;20108;-46
2023/03/02 06:12:44;;;;;;;;;;;;;;;11.47;57.40;101845.22;1955276;73;20112;-46
2023/03/02 06:15:12;;;;;;;;;;;;;;;12.10;56.51;101843.62;1955201;73;20350;-43
2023/03/02 06:17:40;;;;;;;;;;;;;;;12.78;56.73;101845.59;1955178;73;20152;-45
2023/03/02 06:20:09;;;;;;;;;;;;;;;13.38;55.45;101843.73;1955166;73;20113;-44
2023/03/02 06:22:40;;;;;;;;;;;;;;;14.14;54.75;101839.33;1955376;73;20362;-45
2023/03/02 06:25:09;;;;;;;;;;;;;;;14.75;49.06;101836.18;1955163;73;20171;-45
2023/03/02 06:27:37;;;;;;;;;;;;;;;14.77;51.33;101843.17;1956775;71;20148;-44
2023/03/02 06:30:06;;;;;;;;;;;;;;;15.09;51.45;101842.78;1965122;73;20108;-47
2023/03/02 06:32:35;;;;;;;;;;;;;;;15.43;49.37;101844.45;1965290;73;20108;-43
2023/03/02 06:35:04;;;;;;;;;;;;;;;15.67;51.12;101850.98;1965132;73;20111;-43
2023/03/02 06:37:33;;;;;;;;;;;;;;;16.00;49.01;101845.17;1965061;73;20178;-43
2023/03/02 06:40:01;;;;;;;;;;;;;;;16.13;49.37;101851.66;1965243;73;20176;-44
2023/03/02 06:42:28;;;;;;;;;;;;;;;16.33;48.30;101865.39;1965150;73;20116;-43
2023/03/02 06:44:56;;;;;;;;;;;;;;;16.30;45.71;101862.86;1965131;73;20108;-44
2023/03/02 06:47:24;;;;;;;;;;;;;;;16.36;45.92;101867.06;1965256;73;20112;-47
2023/03/02 06:49:52;;;;;;;;;;;;;;;16.58;44.50;101863.81;1965075;73;20108;-48
2023/03/02 06:52:19;;;;;;;;;;;;;;;16.95;45.45;101874.55;1965139;73;20112;-45
2023/03/02 06:54:47;;;;;;;;;;;;;;;17.32;45.17;101876.27;1965214;73;20107;-44
2023/03/02 06:57:15;;;;;;;;;;;;;;;17.63;45.10;101878.75;1965128;73;20116;-47
2023/03/02 06:59:43;;;;;;;;;;;;;;;17.97;44.22;101879.70;1965099;73;20119;-42
2023/03/02 07:02:11;;;;;;;;;;;;;;;18.19;43.37;101876.77;1965256;73;20115;-43
2023/03/02 07:04:39;;;;;;;;;;;;;;;18.36;42.05;101869.20;1965159;73;20195;-43
2023/03/02 07:07:06;;;;;;;;;;;;;;;18.76;42.23;101877.69;1965137;73;20103;-43
2023/03/02 07:09:34;;;;;;;;;;;;;;;18.98;41.14;101887.17;1965127;73;20138;-44
2023/03/02 07:12:02;;;;;;;;;;;;;;;18.85;41.17;101881.66;1965170;73;20150;-45
2023/03/02 07:14:30;;;;;;;;;;;;;;;17.84;41.39;101890.09;1965241;73;20142;-44
2023/03/02 07:16:58;;;;;;;;;;;;;;;16.49;42.00;101897.91;1965161;73;20378;-45
2023/03/02 07:19:26;;;;;;;;;;;;;;;15.49;42.54;101898.22;1965269;73;20362;-48
2023/03/02 07:21:54;;;;;;;;;;;;;;;14.65;43.02;101909.91;1965125;73;20112;-46
2023/03/02 07:24:23;;;;;;;;;;;;;;;13.99;43.02;101905.63;1965238;73;20413;-45
2023/03/02 07:26:51;;;;;;;;;;;;;;;13.23;43.44;101907.22;1965089;73;20116;-45
2023/03/02 07:29:18;;;;;;;;;;;;;;;12.48;43.71;101910.32;1965188;73;20120;-45
2023/03/02 07:31:47;;;;;;;;;;;;;;;12.20;44.19;101912.41;1965014;73;20115;-45
2023/03/02 07:34:15;;;;;;;;;;;;;;;12.01;44.25;101913.79;1965334;73;20119;-44
2023/03/02 07:36:42;;;;;;;;;;;;;;;11.72;44.43;101916.71;1965108;73;20104;-45
2023/03/02 07:39:10;;;;;;;;;;;;;;;11.57;45.08;101920.13;1965058;73;20119;-44
2023/03/02 07:41:38;;;;;;;;;;;;;;;11.92;45.29;101909.18;1965222;73;20096;-47
2023/03/02 07:44:05;;;;;;;;;;;;;;;12.21;45.01;101914.16;1965016;73;20116;-45
2023/03/02 07:46:33;;;;;;;;;;;;;;;12.81;44.39;101908.94;1965082;73;20112;-45
2023/03/02 07:49:01;;;;;;;;;;;;;;;12.89;43.91;101914.84;1965200;73;20108;-46
2023/03/02 07:51:28;;;;;;;;;;;;;;;12.75;44.09;101918.77;1965197;73;20138;-47
2023/03/02 07:53:56;;;;;;;;;;;;;;;12.48;44.21;101913.82;1965361;73;20400;-46
2023/03/02 07:56:24;;;;;;;;;;;;;;;12.19;44.27;101914.66;1965062;73;20096;-44
2023/03/02 07:58:53;;;;;;;;;;;;;;;12.08;44.24;101924.61;1964962;73;20208;-44
2023/03/02 08:01:20;;;;;;;;;;;;;;;11.86;44.24;101926.47;1965079;73;20116;-48
2023/03/02 08:03:48;;;;;;;;;;;;;;;11.47;44.54;101934.47;1965099;73;20112;-46
2023/03/02 08:06:16;;;;;;;;;;;;;;;10.92;44.88;101933.05;1965153;73;20144;-45
2023/03/02 08:08:43;;;;;;;;;;;;;;;10.71;45.66;101937.86;1965050;73;20108;-47
2023/03/02 08:11:13;;;;;;;;;;;;;;;10.53;45.69;101934.28;1965202;73;20146;-47
2023/03/02 08:13:41;;;;;;;;;;;;;;;10.29;45.90;101932.53;1965158;73;20370;-44
2023/03/02 08:16:11;;;;;;;;;;;;;;;10.34;46.16;101928.06;1965223;73;20111;-45
2023/03/02 08:18:39;;;;;;;;;;;;;;;10.29;46.31;101929.91;1965274;73;20408;-46
2023/03/02 08:21:11;;;;;;;;;;;;;;;10.21;46.17;101933.11;1965176;73;20153;-45
2023/03/02 08:23:39;;;;;;;;;;;;;;;10.28;46.02;101927.30;1963779;73;20100;-48
2023/03/02 08:26:07;;;;;;;;;;;;;;;10.35;46.17;101927.17;1965302;73;20370;-46
2023/03/02 08:28:34;;;;;;;;;;;;;;;10.42;45.70;101925.27;1965112;73;20120;-46
2023/03/02 08:31:03;;;;;;;;;;;;;;;10.34;45.22;101929.83;1965193;73;20151;-47
2023/03/02 08:33:31;;;;;;;;;;;;;;;10.23;45.62;101925.59;1965172;73;20146;-44
2023/03/02 08:36:00;;;;;;;;;;;;;;;10.21;45.70;101923.89;1965239;73;20112;-46
2023/03/02 08:38:28;;;;;;;;;;;;;;;10.22;45.67;101922.55;1965159;73;20130;-47
2023/03/02 08:40:57;;;;;;;;;;;;;;;10.24;45.55;101920.76;1965168;73;20100;-43
2023/03/02 08:43:25;;;;;;;;;;;;;;;10.62;45.53;101923.56;1965237;73;20112;-45
2023/03/02 08:45:54;;;;;;;;;;;;;;;11.45;44.77;101916.92;1965325;73;20116;-43
2023/03/02 08:48:22;;;;;;;;;;;;;;;12.82;41.14;101905.36;1965153;73;20112;-43
2023/03/02 08:50:59;;;;;;;;;;;;;;;13.12;41.54;101908.41;1965084;73;20115;-43
2023/03/02 08:53:28;;;;;;;;;;;;;;;12.69;41.46;101908.39;1965316;73;20112;-43
2023/03/02 08:55:56;;;;;;;;;;;;;;;12.14;42.28;101908.16;1965288;73;20391;-47
2023/03/02 08:58:24;;;;;;;;;;;;;;;11.78;42.85;101908.63;1959659;73;20221;-45
2023/03/02 09:00:52;;;;;;;;;;;;;;;11.36;43.02;101904.81;1939725;73;20146;-45
2023/03/02 09:03:19;;;;;;;;;;;;;;;11.09;43.47;101907.20;1897548;76;20116;-45
2023/03/02 09:05:47;;;;;;;;;;;;;;;11.03;43.50;101911.30;1915429;75;20114;-47
2023/03/02 09:08:15;;;;;;;;;;;;;;;11.05;42.76;101912.13;1923561;75;20118;-42
2023/03/02 09:10:43;;;;;;;;;;;;;;;11.00;42.74;101912.68;1923817;75;20157;-42
2023/03/02 09:13:10;;;;;;;;;;;;;;;10.65;42.63;101911.66;1923583;75;20145;-43
2023/03/02 09:15:38;;;;;;;;;;;;;;;10.26;43.14;101907.58;1923599;75;20118;-42
2023/03/02 09:18:06;;;;;;;;;;;;;;;9.99;43.54;101911.12;1923507;75;20106;-42
2023/03/02 09:20:34;;;;;;;;;;;;;;;9.73;43.44;101904.14;1923550;75;20110;-49
2023/03/02 09:23:02;;;;;;;;;;;;;;;9.51;44.11;101901.00;1923694;75;20102;-49
2023/03/02 09:25:29;;;;;;;;;;;;;;;9.48;44.46;101908.50;1923592;75;20118;-47
2023/03/02 09:27:57;;;;;;;;;;;;;;;9.45;44.38;101898.02;1923935;74;20114;-45
2023/03/02 09:30:25;;;;;;;;;;;;;;;9.46;44.51;101905.00;1932533;73;20112;-47
2023/03/02 09:32:53;;;;;;;;;;;;;;;9.43;44.52;101906.38;1951638;73;20171;-48
2023/03/02 09:35:20;;;;;;;;;;;;;;;9.41;44.36;101901.59;1950544;73;20370;-49
2023/03/02 09:37:48;;;;;;;;;;;;;;;9.34;44.23;101903.44;1958465;72;20146;-48
2023/03/02 09:40:18;;;;;;;;;;;;;;;9.37;44.34;101898.14;1954538;72;20112;-49
2023/03/02 09:42:53;;;;;;;;;;;;;;;9.65;44.16;101899.88;1960140;72;20108;-52
2023/03/02 09:45:23;;;;;;;;;;;;;;;10.02;44.09;101903.18;1961386;73;20111;-50
2023/03/02 09:47:55;;;;;;;;;;;;;;;10.17;43.86;101899.85;1961386;73;20116;-48
2023/03/02 09:50:34;;;;;;;;;;;;;;;10.05;43.49;101896.55;1954456;73;20166;-49
2023/03/02 09:53:18;;;;;;;;;;;;;;;9.95;43.41;101898.06;1962150;73;20112;-51
2023/03/02 09:55:47;;;;;;;;;;;;;;;9.86;43.72;101897.31;1961198;73;20381;-50
2023/03/02 09:58:16;;;;;;;;;;;;;;;9.78;44.18;101894.41;1962295;73;20138;-48
2023/03/02 10:00:45;;;;;;;;;;;;;;;9.76;44.13;101889.17;1962246;73;20416;-50
2023/03/02 10:03:17;;;;;;;;;;;;;;;9.62;44.00;101889.39;1962230;73;20429;-51
2023/03/02 10:05:49;;;;;;;;;;;;;;;9.59;44.11;101887.27;1960804;72;20116;-49
2023/03/02 10:08:21;;;;;;;;;;;;;;;10.39;43.94;101888.03;1962582;72;20188;-49
2023/03/02 10:10:50;;;;;;;;;;;;;;;12.11;41.73;101878.33;1968179;72;20154;-49
2023/03/02 10:13:35;;;;;;;;;;;;;;;12.98;39.76;101869.62;1972634;72;20140;-49
2023/03/02 10:16:21;;;;;;;;;;;;;;;13.51;39.66;101867.06;1962750;72;20159;-54
2023/03/02 10:18:53;;;;;;;;;;;;;;;13.57;38.55;101865.14;1967687;72;20111;-51
2023/03/02 10:21:28;;;;;;;;;;;;;;;13.23;39.39;101863.58;1986630;72;20114;-49
2023/03/02 10:23:58;;;;;;;;;;;;;;;13.94;38.10;101867.84;1973818;72;20142;-51
2023/03/02 10:26:42;;;;;;;;;;;;;;;13.52;38.53;101869.28;1952028;73;20144;-50
2023/03/02 10:29:11;;;;;;;;;;;;;;;12.77;39.03;101861.05;1935625;72;20362;-51
2023/03/02 10:31:42;;;;;;;;;;;;;;;12.05;39.68;101865.31;1985478;71;20140;-52
2023/03/02 10:34:10;;;;;;;;;;;;;;;11.59;40.39;101868.20;1996323;71;20431;-51
2023/03/02 10:36:39;;;;;;;;;;;;;;;11.23;40.62;101867.78;1965238;73;20115;-49
2023/03/02 10:39:08;;;;;;;;;;;;;;;10.96;40.96;101870.17;1964975;73;20138;-48
2023/03/02 10:41:40;;;;;;;;;;;;;;;10.69;41.26;101875.59;1964902;73;20120;-49
2023/03/02 10:44:09;;;;;;;;;;;;;;;10.34;41.68;101872.77;1965943;73;20112;-49
2023/03/02 10:46:41;;;;;;;;;;;;;;;9.86;40.75;101876.27;1946331;71;20103;-47
2023/03/02 10:49:26;;;;;;;;;;;;;;;9.53;42.31;101869.83;1972251;73;20440;-47
2023/03/02 10:52:04;;;;;;;;;;;;;;;9.38;42.58;101880.61;1969240;71;20121;-46
2023/03/02 10:54:35;;;;;;;;;;;;;;;9.14;43.05;101872.20;1965274;73;20143;-49
2023/03/02 10:57:04;;;;;;;;;;;;;;;9.04;43.20;101878.50;1965209;73;20421;-50
2023/03/02 10:59:33;;;;;;;;;;;;;;;8.99;43.34;101888.20;1972099;71;20202;-49
2023/03/02 11:02:02;;;;;;;;;;;;;;;9.02;43.30;101889.02;1977995;71;20111;-50
2023/03/02 11:04:30;;;;;;;;;;;;;;;9.02;43.30;101882.91;1970959;72;20150;-49
2023/03/02 11:07:11;;;;;;;;;;;;;;;8.99;43.42;101887.73;1972169;73;20112;-50
2023/03/02 11:09:38;;;;;;;;;;;;;;;9.03;43.32;101890.73;1968219;71;20150;-50
2023/03/02 11:12:08;;;;;;;;;;;;;;;9.11;43.33;101895.02;1965110;73;20103;-49
2023/03/02 11:14:37;;;;;;;;;;;;;;;9.25;43.10;101893.06;1964498;73;20343;-49
2023/03/02 11:17:06;;;;;;;;;;;;;;;9.36;42.86;101886.33;1965227;73;20409;-53
2023/03/02 11:19:38;;;;;;;;;;;;;;;9.45;42.75;101884.42;1960210;73;20240;-48
2023/03/02 11:22:07;;;;;;;;;;;;;;;9.51;42.58;101888.70;1965028;73;20142;-53
2023/03/02 11:24:48;;;;;;;;;;;;;;;9.51;42.55;101887.39;1964029;73;20124;-52
2023/03/02 11:27:21;;;;;;;;;;;;;;;9.48;42.49;101895.35;1970354;71;20135;-53
2023/03/02 11:29:50;;;;;;;;;;;;;;;9.25;42.80;101893.92;2007861;71;20121;-53
2023/03/02 11:32:20;;;;;;;;;;;;;;;9.12;42.96;101895.46;1990778;71;20098;-54
2023/03/02 11:34:52;;;;;;;;;;;;;;;9.03;43.08;101888.56;1983435;72;20106;-54
2023/03/02 11:37:24;;;;;;;;;;;;;;;9.02;43.21;101892.10;1980185;72;20364;-50
2023/03/02 11:40:05;;;;;;;;;;;;;;;8.99;43.14;101889.51;1980169;72;20098;-54
2023/03/02 11:42:34;;;;;;;;;;;;;;;8.90;43.23;101887.87;1979047;72;20106;-51
2023/03/02 11:45:03;;;;;;;;;;;;;;;8.84;43.27;101890.13;1968388;72;20409;-54
2023/03/02 11:47:32;;;;;;;;;;;;;;;8.74;43.17;101885.88;1953034;72;20096;-49
2023/03/02 11:50:01;;;;;;;;;;;;;;;8.66;43.19;101889.06;1954684;73;20116;-53
2023/03/02 11:52:30;;;;;;;;;;;;;;;8.59;43.27;101892.65;1954873;73;20142;-50
2023/03/02 11:54:59;;;;;;;;;;;;;;;8.61;43.26;101886.94;1955382;72;20112;-47
2023/03/02 11:57:35;;;;;;;;;;;;;;;8.70;43.30;101885.50;1953413;73;20116;-48
2023/03/02 12:00:04;;;;;;;;;;;;;;;8.71;43.36;101885.94;1954891;73;20108;-52
2023/03/02 12:02:33;;;;;;;;;;;;;;;8.77;43.35;101881.91;1951922;73;20174;-49
2023/03/02 12:05:02;;;;;;;;;;;;;;;8.88;43.24;101878.69;1942899;72;20114;-47
2023/03/02 12:07:30;;;;;;;;;;;;;;;8.97;43.26;101875.53;1980344;72;20114;-48
2023/03/02 12:10:02;;;;;;;;;;;;;;;9.07;43.27;101878.43;1957314;72;20104;-53
2023/03/02 12:12:34;;;;;;;;;;;;;;;9.15;43.25;101877.89;1970070;72;20110;-52
2023/03/02 12:15:02;;;;;;;;;;;;;;;9.15;43.07;101876.58;1953704;73;20108;-52
2023/03/02 12:17:31;;;;;;;;;;;;;;;9.07;43.05;101888.94;1951396;72;20155;-50
2023/03/02 12:20:10;;;;;;;;;;;;;;;9.05;42.99;101878.91;1945375;74;20116;-46
2023/03/02 12:22:39;;;;;;;;;;;;;;;8.99;42.93;101875.92;1945384;74;20116;-50
2023/03/02 12:25:08;;;;;;;;;;;;;;;9.04;43.07;101883.75;1945362;74;20109;-50
2023/03/02 12:27:37;;;;;;;;;;;;;;;9.13;42.97;101884.04;1945234;74;20112;-51
2023/03/02 12:30:13;;;;;;;;;;;;;;;9.18;42.62;101897.53;1951775;72;20137;-49
2023/03/02 12:32:40;;;;;;;;;;;;;;;9.16;42.66;101890.58;1962024;72;20120;-51
2023/03/02 12:35:10;;;;;;;;;;;;;;;8.99;42.54;101889.05;1955210;73;20142;-49
2023/03/02 12:37:55;;;;;;;;;;;;;;;8.92;42.75;101891.80;1962012;72;20365;-49
2023/03/02 12:40:31;;;;;;;;;;;;;;;8.92;42.83;101890.03;1977807;72;20511;-48
2023/03/02 12:43:16;;;;;;;;;;;;;;;8.92;42.96;101897.05;1961344;72;20154;-52
2023/03/02 12:45:57;;;;;;;;;;;;;;;8.88;42.92;101891.83;1972871;72;20176;-48
2023/03/02 12:48:26;;;;;;;;;;;;;;;8.78;43.11;101886.29;1963059;72;20120;-50
2023/03/02 12:50:56;;;;;;;;;;;;;;;8.81;43.15;101887.54;1950660;72;20163;-48
2023/03/02 12:53:23;;;;;;;;;;;;;;;8.72;43.21;101888.97;1961526;72;20159;-51
2023/03/02 12:55:51;;;;;;;;;;;;;;;8.72;43.37;101892.91;1969396;72;20116;-48
2023/03/02 12:58:20;;;;;;;;;;;;;;;8.72;43.36;101891.59;1967611;72;20112;-47
2023/03/02 13:00:52;;;;;;;;;;;;;;;8.80;43.31;101892.84;1965839;72;20346;-53
2023/03/02 13:03:20;;;;;;;;;;;;;;;8.78;43.29;101895.48;1967191;72;20148;-49
2023/03/02 13:05:48;;;;;;;;;;;;;;;8.73;43.35;101884.16;1965818;72;20142;-49
2023/03/02 13:08:17;;;;;;;;;;;;;;;8.71;43.28;101890.33;1994004;72;20220;-48
2023/03/02 13:10:53;;;;;;;;;;;;;;;8.64;43.23;101889.53;1994251;72;20113;-49
2023/03/02 13:13:23;;;;;;;;;;;;;;;8.67;42.97;101882.94;1969506;72;20347;-48
2023/03/02 13:15:56;;;;;;;;;;;;;;;8.68;43.02;101895.16;1964986;72;20738;-52
2023/03/02 13:18:26;;;;;;;;;;;;;;;8.68;42.85;101896.47;1984718;72;20167;-51
2023/03/02 13:20:54;;;;;;;;;;;;;;;8.59;42.95;101897.90;1961342;73;20151;-50
2023/03/02 13:23:21;;;;;;;;;;;;;;;8.48;42.97;101890.15;1973589;72;20098;-45
2023/03/02 13:25:57;;;;;;;;;;;;;;;8.34;42.98;101888.98;1989514;72;20114;-46
2023/03/02 13:28:29;;;;;;;;;;;;;;;8.22;43.14;101886.48;1963786;73;20241;-46
2023/03/02 13:31:04;;;;;;;;;;;;;;;8.00;43.39;101884.08;1967111;72;20466;-46
2023/03/02 13:33:34;;;;;;;;;;;;;;;7.86;43.56;101878.13;1965171;73;20120;-45
2023/03/02 13:36:02;;;;;;;;;;;;;;;7.77;43.55;101875.59;1965166;73;20100;-45
2023/03/02 13:38:32;;;;;;;;;;;;;;;7.75;43.53;101876.91;1965181;73;20120;-45
2023/03/02 13:41:00;;;;;;;;;;;;;;;7.75;43.54;101874.28;1963966;72;20146;-46
2023/03/02 13:43:40;;;;;;;;;;;;;;;7.79;43.46;101868.57;1965120;73;20108;-47
2023/03/02 13:46:19;;;;;;;;;;;;;;;7.79;43.53;101871.19;1965154;73;20116;-46
2023/03/02 13:48:54;;;;;;;;;;;;;;;7.75;43.31;101866.42;1965144;73;20143;-46
2023/03/02 13:51:24;;;;;;;;;;;;;;;7.69;43.48;101867.34;1965291;73;20191;-45
2023/03/02 13:53:55;;;;;;;;;;;;;;;7.65;43.47;101866.92;1965161;73;20111;-46
2023/03/02 13:56:24;;;;;;;;;;;;;;;7.63;43.42;101856.89;1963896;72;20115;-46
2023/03/02 13:58:52;;;;;;;;;;;;;;;7.62;43.50;101863.03;1965205;73;20112;-46
2023/03/02 14:01:20;;;;;;;;;;;;;;;7.55;43.55;101867.90;1965265;73;20103;-46
2023/03/02 14:03:48;;;;;;;;;;;;;;;7.46;43.59;101871.91;1965156;73;20185;-50
2023/03/02 14:06:17;;;;;;;;;;;;;;;7.37;43.63;101873.28;1965167;73;20120;-46
2023/03/02 14:08:45;;;;;;;;;;;;;;;7.22;43.65;101877.75;1965197;73;20425;-46
2023/03/02 14:11:17;;;;;;;;;;;;;;;7.06;43.73;101879.59;1965146;73;20154;-45
2023/03/02 14:13:47;;;;;;;;;;;;;;;6.93;43.77;101881.44;1965109;73;20378;-45
2023/03/02 14:16:15;;;;;;;;;;;;;;;6.81;43.87;101885.42;1965072;73;20185;-45
2023/03/02 14:18:51;;;;;;;;;;;;;;;6.70;43.95;101880.69;1965134;73;20112;-46
2023/03/02 14:21:21;;;;;;;;;;;;;;;6.60;44.03;101877.66;1965256;73;20107;-49
2023/03/02 14:23:50;;;;;;;;;;;;;;;6.50;44.08;101884.24;1965361;73;20499;-46
2023/03/02 14:26:20;;;;;;;;;;;;;;;6.38;44.20;101882.97;1965247;73;20116;-47
2023/03/02 14:28:47;;;;;;;;;;;;;;;6.29;44.29;101884.30;1964308;73;20167;-47
2023/03/02 14:31:17;;;;;;;;;;;;;;;6.23;44.35;101875.17;1965115;73;20116;-45
2023/03/02 14:33:45;;;;;;;;;;;;;;;6.13;44.43;101876.51;1956003;72;20429;-46
2023/03/02 14:36:17;;;;;;;;;;;;;;;6.05;44.54;101875.67;1954877;73;20120;-46
2023/03/02 14:38:44;;;;;;;;;;;;;;;5.98;44.58;101877.86;1954815;73;20190;-45
2023/03/02 14:41:19;;;;;;;;;;;;;;;5.91;44.65;101877.40;1954761;73;20147;-45
2023/03/02 14:43:47;;;;;;;;;;;;;;;5.83;44.72;101879.13;1954874;73;20117;-46
2023/03/02 14:46:15;;;;;;;;;;;;;;;5.77;44.77;101877.40;1954842;73;20159;-46
2023/03/02 14:48:43;;;;;;;;;;;;;;;5.69;44.83;101881.78;1954868;73;20143;-45
2023/03/02 14:51:15;;;;;;;;;;;;;;;5.60;44.93;101880.89;1954842;73;20100;-45
2023/03/02 14:53:43;;;;;;;;;;;;;;;5.48;45.11;101882.22;1953252;73;20198;-45
2023/03/02 14:56:11;;;;;;;;;;;;;;;5.39;45.25;101880.46;1954826;73;20104;-47
2023/03/02 14:58:38;;;;;;;;;;;;;;;5.30;45.38;101881.77;1954920;73;20116;-46
2023/03/02 15:01:07;;;;;;;;;;;;;;;5.21;45.52;101880.44;1954831;73;20112;-46
2023/03/02 15:03:35;;;;;;;;;;;;;;;5.13;45.63;101890.02;1954770;73;20152;-47
2023/03/02 15:06:02;;;;;;;;;;;;;;;5.02;45.69;101894.77;1954710;73;20609;-48
2023/03/02 15:08:30;;;;;;;;;;;;;;;4.93;45.84;101896.05;1954793;73;20139;-47
2023/03/02 15:10:58;;;;;;;;;;;;;;;4.84;45.97;101899.49;1954792;73;20155;-46
2023/03/02 15:13:26;;;;;;;;;;;;;;;4.78;46.03;101898.63;1954768;73;20100;-46
2023/03/02 15:15:53;;;;;;;;;;;;;;;4.69;46.13;101897.28;1955059;73;20116;-46
2023/03/02 15:18:21;;;;;;;;;;;;;;;4.62;46.21;101906.37;1954777;73;20100;-46
2023/03/02 15:20:49;;;;;;;;;;;;;;;4.56;46.28;101905.05;1954833;73;20245;-46
2023/03/02 15:23:16;;;;;;;;;;;;;;;4.48;46.35;101906.73;1954742;73;20138;-46
2023/03/02 15:25:44;;;;;;;;;;;;;;;4.42;46.36;101908.02;1954862;73;20167;-45
2023/03/02 15:28:12;;;;;;;;;;;;;;;4.35;46.40;101904.93;1954898;73;20420;-45
2023/03/02 15:30:40;;;;;;;;;;;;;;;4.29;46.49;101908.82;1954908;73;20116;-45
2023/03/02 15:33:08;;;;;;;;;;;;;;;4.22;46.52;101911.81;1958798;71;20138;-44
2023/03/02 15:35:37;;;;;;;;;;;;;;;4.14;46.60;101913.52;1965189;72;20100;-45
2023/03/02 15:38:05;;;;;;;;;;;;;;;4.08;46.68;101914.34;1965226;73;20163;-46
2023/03/02 15:40:32;;;;;;;;;;;;;;;4.02;46.74;101920.80;1965227;73;20116;-45
2023/03/02 15:43:00;;;;;;;;;;;;;;;3.93;46.80;101924.64;1965192;73;20112;-45
2023/03/02 15:45:28;;;;;;;;;;;;;;;3.83;46.92;101926.31;1965228;73;20120;-44
2023/03/02 15:47:56;;;;;;;;;;;;;;;3.71;47.03;101934.92;1965179;73;20186;-46
2023/03/02 15:50:24;;;;;;;;;;;;;;;3.60;47.17;101932.66;1965212;73;20104;-44
2023/03/02 15:52:51;;;;;;;;;;;;;;;3.54;47.26;101939.09;1965227;73;20141;-46
2023/03/02 15:55:19;;;;;;;;;;;;;;;3.48;47.33;101942.51;1965299;73;20116;-44
2023/03/02 15:57:47;;;;;;;;;;;;;;;3.39;47.44;101943.28;1965214;73;20139;-44
2023/03/02 16:00:15;;;;;;;;;;;;;;;3.37;47.48;101950.20;1965117;73;20205;-44
2023/03/02 16:02:43;;;;;;;;;;;;;;;3.36;47.49;101948.48;1965226;73;20142;-45
2023/03/02 16:05:10;;;;;;;;;;;;;;;3.28;48.05;101952.72;1965218;73;20115;-47
2023/03/02 16:07:38;;;;;;;;;;;;;;;3.20;47.93;101951.78;1965225;73;20111;-44
2023/03/02 16:10:08;;;;;;;;;;;;;;;3.14;47.91;101952.58;1965221;73;20108;-44
2023/03/02 16:12:36;;;;;;;;;;;;;;;3.08;47.93;101957.30;1965244;73;20112;-45
2023/03/02 16:15:04;;;;;;;;;;;;;;;3.05;47.95;101957.25;1965184;73;20187;-44
2023/03/02 16:17:32;;;;;;;;;;;;;;;3.00;47.98;101962.81;1965202;73;20124;-46
2023/03/02 16:20:00;;;;;;;;;;;;;;;2.97;48.00;101962.80;1965184;73;20115;-44
2023/03/02 16:22:27;;;;;;;;;;;;;;;2.93;48.06;101959.70;1965155;73;20142;-44
2023/03/02 16:24:55;;;;;;;;;;;;;;;2.90;48.12;101966.19;1965313;73;20191;-45
2023/03/02 16:27:23;;;;;;;;;;;;;;;2.84;48.14;101971.29;1965095;73;20100;-45
2023/03/02 16:29:51;;;;;;;;;;;;;;;2.81;48.18;101968.67;1965193;73;20104;-46
2023/03/02 16:32:20;;;;;;;;;;;;;;;2.76;48.24;101975.53;1965146;73;20138;-47
2023/03/02 16:34:48;;;;;;;;;;;;;;;2.70;48.36;101976.33;1956603;72;20448;-45
2023/03/02 16:37:16;;;;;;;;;;;;;;;2.65;48.42;101979.28;1954787;73;20120;-44
2023/03/02 16:39:44;;;;;;;;;;;;;;;2.60;48.41;101984.44;1954778;73;20143;-45
2023/03/02 16:42:11;;;;;;;;;;;;;;;2.54;48.51;101984.34;1954815;73;20116;-46
2023/03/02 16:44:39;;;;;;;;;;;;;;;2.50;48.48;101985.16;1954821;73;20143;-46
2023/03/02 16:47:07;;;;;;;;;;;;;;;2.49;48.46;101979.09;1954811;73;20112;-46
2023/03/02 16:49:35;;;;;;;;;;;;;;;2.50;48.56;101987.75;1954783;73;20159;-46
2023/03/02 16:52:03;;;;;;;;;;;;;;;2.49;48.53;101987.29;1954811;73;20112;-46
2023/03/02 16:54:30;;;;;;;;;;;;;;;2.48;48.49;101986.42;1954748;73;20120;-44
2023/03/02 16:56:58;;;;;;;;;;;;;;;2.47;48.51;101986.00;1954820;73;20142;-45
2023/03/02 16:59:26;;;;;;;;;;;;;;;2.41;48.63;101986.31;1954822;73;20104;-46
2023/03/02 17:01:54;;;;;;;;;;;;;;;2.36;48.78;101988.87;1954806;73;20139;-44
2023/03/02 17:04:21;;;;;;;;;;;;;;;2.31;48.94;101991.38;1954893;73;20383;-44
2023/03/02 17:06:49;;;;;;;;;;;;;;;2.28;48.96;101989.16;1954748;73;20146;-45
2023/03/02 17:09:17;;;;;;;;;;;;;;;2.25;48.99;101991.30;1954815;73;20104;-46
2023/03/02 17:11:45;;;;;;;;;;;;;;;2.21;49.00;101990.78;1954949;73;20409;-44
2023/03/02 17:14:12;;;;;;;;;;;;;;;2.18;48.95;101991.19;1954815;73;20150;-45
2023/03/02 17:16:41;;;;;;;;;;;;;;;2.14;48.91;101998.06;1954835;73;20108;-44
2023/03/02 17:19:08;;;;;;;;;;;;;;;2.08;48.94;101995.34;1954815;73;20120;-47
2023/03/02 17:21:36;;;;;;;;;;;;;;;2.03;49.03;101989.19;1954726;73;20146;-48
2023/03/02 17:24:04;;;;;;;;;;;;;;;1.99;49.17;101987.39;1954851;73;20100;-47
2023/03/02 17:26:32;;;;;;;;;;;;;;;1.92;49.35;101985.14;1954801;73;20116;-47
2023/03/02 17:29:00;;;;;;;;;;;;;;;1.87;49.43;101991.98;1954910;73;20116;-47
2023/03/02 17:31:27;;;;;;;;;;;;;;;1.84;49.69;101993.21;1954774;73;20112;-45
2023/03/02 17:33:55;;;;;;;;;;;;;;;1.75;49.64;101992.62;1954647;72;20116;-44
2023/03/02 17:36:23;;;;;;;;;;;;;;;1.67;49.69;101991.19;1954814;73;20142;-45
2023/03/02 17:38:51;;;;;;;;;;;;;;;1.61;49.88;101987.63;1954746;73;20151;-46
2023/03/02 17:41:18;;;;;;;;;;;;;;;1.57;50.08;101988.40;1954729;73;20100;-45
2023/03/02 17:43:46;;;;;;;;;;;;;;;1.51;50.21;101991.36;1954769;73;20116;-47
2023/03/02 17:46:22;;;;;;;;;;;;;;;1.46;50.28;101992.98;1954745;73;20112;-45
2023/03/02 17:48:51;;;;;;;;;;;;;;;1.41;50.44;101993.32;1954446;73;20202;-48
2023/03/02 17:51:19;;;;;;;;;;;;;;;1.39;50.54;101997.61;1954911;73;20347;-47
2023/03/02 17:53:48;;;;;;;;;;;;;;;1.38;50.57;102006.23;1954819;73;20162;-49
2023/03/02 17:56:25;;;;;;;;;;;;;;;1.36;50.50;102009.22;1954764;73;20148;-46
2023/03/02 17:58:54;;;;;;;;;;;;;;;1.35;50.35;102001.00;1953400;73;20166;-49
2023/03/02 18:01:21;;;;;;;;;;;;;;;1.29;50.44;102002.16;1953723;73;20186;-47
2023/03/02 18:03:49;;;;;;;;;;;;;;;1.24;50.53;102003.81;1954770;73;20104;-45
2023/03/02 18:06:19;;;;;;;;;;;;;;;1.18;50.63;102004.97;1954803;73;20394;-46
2023/03/02 18:08:48;;;;;;;;;;;;;;;1.14;50.65;102003.63;1954831;73;20146;-45
2023/03/02 18:11:16;;;;;;;;;;;;;;;1.11;50.65;102004.86;1953855;73;20151;-45
2023/03/02 18:13:44;;;;;;;;;;;;;;;1.09;50.63;101998.77;1954735;73;20229;-49
2023/03/02 18:16:12;;;;;;;;;;;;;;;1.06;50.72;102003.02;1954774;73;20112;-48
2023/03/02 18:18:39;;;;;;;;;;;;;;;1.05;50.72;102007.73;1954798;73;20104;-45
2023/03/02 18:21:07;;;;;;;;;;;;;;;1.03;50.65;102006.41;1954784;73;20112;-45